createdAt,value
2019-03-27T00:01:39.392Z,102278.22
2019-03-27T00:04:09.595Z,102280.32
2019-03-27T00:06:39.281Z,102276.98
2019-03-27T00:09:09.214Z,102279.48
2019-03-27T00:11:38.842Z,102280.28
2019-03-27T00:14:08.814Z,102280.27
2019-03-27T00:16:38.709Z,102283.53
2019-03-27T00:19:08.339Z,102282.67
2019-03-27T00:21:38.002Z,102287.27
2019-03-27T00:24:07.625Z,102285.97
2019-03-27T00:26:37.367Z,102285.56
2019-03-27T00:29:07.065Z,102282.67
2019-03-27T00:31:38.349Z,102293.48
2019-03-27T00:34:09.036Z,102291.47
2019-03-27T00:36:38.949Z,102290.23
2019-03-27T00:39:08.683Z,102300.27
2019-03-27T00:41:38.368Z,102291.94
2019-03-27T00:44:08.234Z,102287.42
2019-03-27T00:46:37.856Z,102286.12
2019-03-27T00:49:07.653Z,102291.13
2019-03-27T00:51:37.316Z,102287.73
2019-03-27T00:54:08.260Z,102285.22
2019-03-27T00:56:37.872Z,102288.52
2019-03-27T00:59:07.647Z,102296.88
2019-03-27T01:01:37.266Z,102301.93
2019-03-27T01:04:07.929Z,102301.13
2019-03-27T01:06:38.560Z,102299.93
2019-03-27T01:09:08.297Z,102294.58
2019-03-27T01:11:38.014Z,102288.34
2019-03-27T01:14:08.096Z,102291.73
2019-03-27T01:16:37.704Z,102292.14
2019-03-27T01:19:07.498Z,102292.14
2019-03-27T01:21:37.186Z,102294.24
2019-03-27T01:24:06.907Z,102292.98
2019-03-27T01:26:37.290Z,102298.79
2019-03-27T01:29:07.051Z,102297.54
2019-03-27T01:31:36.759Z,102297.55
2019-03-27T01:34:06.367Z,102298.80
2019-03-27T01:36:36.021Z,102291.73
2019-03-27T01:39:06.796Z,102289.23
2019-03-27T01:41:36.886Z,102286.28
2019-03-27T01:44:08.467Z,102285.03
2019-03-27T01:46:38.023Z,102289.23
2019-03-27T01:49:08.419Z,102286.28
2019-03-27T01:51:38.414Z,102279.12
2019-03-27T01:54:08.039Z,102282.83
2019-03-27T01:56:37.749Z,102285.73
2019-03-27T01:59:07.518Z,102281.11
2019-03-27T02:01:37.503Z,102278.53
2019-03-27T02:04:07.122Z,102278.88
2019-03-27T02:06:37.368Z,102277.61
2019-03-27T02:09:07.623Z,102271.31
2019-03-27T02:11:37.231Z,102274.22
2019-03-27T02:14:07.077Z,102283.41
2019-03-27T02:16:37.159Z,102274.66
2019-03-27T02:19:06.824Z,102279.66
2019-03-27T02:21:36.485Z,102272.91
2019-03-27T02:24:06.097Z,102275.41
2019-03-27T02:26:35.841Z,102280.80
2019-03-27T02:29:06.419Z,102283.25
2019-03-27T02:31:36.051Z,102283.19
2019-03-27T02:34:05.687Z,102278.14
2019-03-27T02:36:35.354Z,102283.89
2019-03-27T02:39:05.739Z,102279.73
2019-03-27T02:41:35.366Z,102288.48
2019-03-27T02:44:05.297Z,102291.38
2019-03-27T02:46:34.981Z,102294.73
2019-03-27T02:49:04.658Z,102296.40
2019-03-27T02:51:36.444Z,102291.44
2019-03-27T02:54:06.064Z,102287.69
2019-03-27T02:56:35.671Z,102293.55
2019-03-27T02:59:06.366Z,102293.15
2019-03-27T03:01:36.559Z,102293.20
2019-03-27T03:04:06.278Z,102293.20
2019-03-27T03:06:36.041Z,102296.95
2019-03-27T03:09:07.309Z,102303.20
2019-03-27T03:11:36.922Z,102302.34
2019-03-27T03:14:07.580Z,102307.75
2019-03-27T03:16:42.912Z,102310.70
2019-03-27T03:19:08.772Z,102311.91
2019-03-27T03:21:39.103Z,102311.45
2019-03-27T03:24:09.237Z,102315.20
2019-03-27T03:26:38.853Z,102308.50
2019-03-27T03:29:08.539Z,102308.50
2019-03-27T03:31:38.834Z,102308.05
2019-03-27T03:34:08.425Z,102311.78
2019-03-27T03:36:38.347Z,102310.09
2019-03-27T03:39:08.121Z,102319.23
2019-03-27T03:41:37.757Z,102312.13
2019-03-27T03:44:07.404Z,102315.43
2019-03-27T03:46:37.021Z,102307.93
2019-03-27T03:49:07.025Z,102312.92
2019-03-27T03:51:36.766Z,102309.98
2019-03-27T03:54:06.954Z,102308.31
2019-03-27T03:56:39.807Z,102306.66
2019-03-27T03:59:12.846Z,102302.01
2019-03-27T04:01:45.288Z,102297.75
2019-03-27T04:04:15.922Z,102306.86
2019-03-27T04:06:45.691Z,102307.19
2019-03-27T04:09:15.911Z,102299.23
2019-03-27T04:11:45.548Z,102312.98
2019-03-27T04:14:16.159Z,102310.88
2019-03-27T04:16:46.031Z,102312.97
2019-03-27T04:19:15.821Z,102315.02
2019-03-27T04:21:45.564Z,102315.86
2019-03-27T04:24:15.562Z,102319.17
2019-03-27T04:26:45.191Z,102322.47
2019-03-27T04:29:14.855Z,102334.56
2019-03-27T04:31:44.499Z,102322.52
2019-03-27T04:34:14.278Z,102318.36
2019-03-27T04:36:44.316Z,102317.58
2019-03-27T04:39:14.827Z,102315.92
2019-03-27T04:41:44.491Z,102317.69
2019-03-27T04:44:14.128Z,102318.20
2019-03-27T04:46:43.757Z,102319.06
2019-03-27T04:49:13.384Z,102314.97
2019-03-27T04:51:43.217Z,102314.23
2019-03-27T04:54:12.832Z,102310.55
2019-03-27T04:56:42.534Z,102306.50
2019-03-27T04:59:12.215Z,102307.41
2019-03-27T05:01:41.857Z,102311.72
2019-03-27T05:04:12.746Z,102312.22
2019-03-27T05:06:42.420Z,102323.65
2019-03-27T05:09:12.048Z,102321.81
2019-03-27T05:11:41.672Z,102321.56
2019-03-27T05:14:11.361Z,102311.66
2019-03-27T05:16:40.976Z,102308.45
2019-03-27T05:19:10.811Z,102298.19
2019-03-27T05:21:40.473Z,102305.48
2019-03-27T05:24:10.086Z,102304.02
2019-03-27T05:26:39.725Z,102294.09
2019-03-27T05:29:10.283Z,102301.33
2019-03-27T05:31:39.903Z,102309.86
2019-03-27T05:34:09.520Z,102304.50
2019-03-27T05:36:39.179Z,102307.04
2019-03-27T05:39:08.800Z,102323.50
2019-03-27T05:41:38.433Z,102318.20
2019-03-27T05:44:08.101Z,102323.02
2019-03-27T05:46:37.844Z,102321.14
2019-03-27T05:49:08.470Z,102314.65
2019-03-27T05:51:38.435Z,102325.30
2019-03-27T05:54:08.059Z,102317.94
2019-03-27T05:56:38.687Z,102314.35
2019-03-27T05:59:08.634Z,102317.92
2019-03-27T06:01:38.254Z,102317.67
2019-03-27T06:04:08.040Z,102322.77
2019-03-27T06:06:37.705Z,102317.39
2019-03-27T06:09:07.555Z,102317.95
2019-03-27T06:11:37.318Z,102316.73
2019-03-27T06:14:07.107Z,102325.27
2019-03-27T06:16:37.106Z,102324.55
2019-03-27T06:19:07.057Z,102324.28
2019-03-27T06:21:36.704Z,102321.42
2019-03-27T06:24:06.326Z,102314.39
2019-03-27T06:26:35.953Z,102323.28
2019-03-27T06:29:05.732Z,102316.59
2019-03-27T06:31:35.348Z,102317.08
2019-03-27T06:34:05.081Z,102313.74
2019-03-27T06:36:34.792Z,102317.11
2019-03-27T06:39:05.693Z,102321.76
2019-03-27T06:41:35.509Z,102317.98
2019-03-27T06:44:05.707Z,102319.67
2019-03-27T06:46:35.315Z,102315.05
2019-03-27T06:49:04.999Z,102311.27
2019-03-27T06:51:40.329Z,102301.19
2019-03-27T06:54:06.218Z,102310.84
2019-03-27T06:56:35.849Z,102314.23
2019-03-27T06:59:05.508Z,102307.49
2019-03-27T07:01:35.124Z,102312.12
2019-03-27T07:04:10.338Z,102304.55
2019-03-27T07:06:36.132Z,102311.28
2019-03-27T07:09:08.759Z,102311.28
2019-03-27T07:11:38.618Z,102312.55
2019-03-27T07:14:08.438Z,102314.22
2019-03-27T07:16:38.057Z,102308.33
2019-03-27T07:19:08.016Z,102306.23
2019-03-27T07:21:38.072Z,102312.13
2019-03-27T07:24:07.796Z,102316.74
2019-03-27T07:26:37.544Z,102315.49
2019-03-27T07:29:07.266Z,102319.70
2019-03-27T07:31:36.940Z,102319.27
2019-03-27T07:34:06.932Z,102317.58
2019-03-27T07:36:36.911Z,102323.87
2019-03-27T07:39:11.167Z,102326.38
2019-03-27T07:41:38.624Z,102328.92
2019-03-27T07:44:08.356Z,102328.92
2019-03-27T07:46:38.147Z,102332.27
2019-03-27T07:49:08.135Z,102332.25
2019-03-27T07:51:37.876Z,102337.27
2019-03-27T07:54:07.490Z,102328.86
2019-03-27T07:56:37.821Z,102334.28
2019-03-27T07:59:08.150Z,102334.66
2019-03-27T08:01:37.772Z,102328.28
2019-03-27T08:04:08.122Z,102330.70
2019-03-27T08:06:37.808Z,102327.67
2019-03-27T08:09:08.326Z,102336.45
2019-03-27T08:11:38.104Z,102335.17
2019-03-27T08:14:07.815Z,102349.09
2019-03-27T08:16:37.551Z,102341.09
2019-03-27T08:19:08.166Z,102331.35
2019-03-27T08:21:38.203Z,102358.25
2019-03-27T08:24:08.401Z,102330.83
2019-03-27T08:26:38.092Z,102330.72
2019-03-27T08:29:07.805Z,102336.46
2019-03-27T08:31:37.449Z,102343.38
2019-03-27T08:34:07.522Z,102349.67
2019-03-27T08:36:37.376Z,102343.59
2019-03-27T08:39:08.538Z,102348.51
2019-03-27T08:41:38.157Z,102345.09
2019-03-27T08:44:08.106Z,102347.12
2019-03-27T08:46:37.721Z,102346.20
2019-03-27T08:49:20.801Z,102351.69
2019-03-27T08:51:39.665Z,102345.60
2019-03-27T08:54:09.289Z,102343.22
2019-03-27T08:56:38.935Z,102339.60
2019-03-27T08:59:08.722Z,102346.69
2019-03-27T09:01:38.908Z,102343.72
2019-03-27T09:04:08.527Z,102345.37
2019-03-27T09:06:38.364Z,102342.26
2019-03-27T09:09:08.613Z,102343.84
2019-03-27T09:11:38.519Z,102346.33
2019-03-27T09:14:08.283Z,102340.24
2019-03-27T09:16:37.893Z,102342.02
2019-03-27T09:19:07.676Z,102339.73
2019-03-27T09:21:37.346Z,102345.42
2019-03-27T09:24:07.124Z,102343.19
2019-03-27T09:26:37.647Z,102340.56
2019-03-27T09:29:08.550Z,102346.14
2019-03-27T09:31:44.701Z,102331.91
2019-03-27T09:34:09.959Z,102345.69
2019-03-27T09:36:40.061Z,102349.02
2019-03-27T09:39:12.000Z,102336.31
2019-03-27T09:41:41.675Z,102344.42
2019-03-27T09:44:11.296Z,102335.77
2019-03-27T09:46:42.447Z,102362.05
2019-03-27T09:49:12.423Z,102353.81
2019-03-27T09:51:42.301Z,102367.61
2019-03-27T09:54:11.912Z,102355.56
2019-03-27T09:56:42.056Z,102354.14
2019-03-27T09:59:11.664Z,102338.23
2019-03-27T10:01:41.346Z,102347.11
2019-03-27T10:04:11.051Z,102349.13
2019-03-27T10:06:40.663Z,102335.97
2019-03-27T10:09:10.451Z,102337.85
2019-03-27T10:11:40.245Z,102342.81
2019-03-27T10:14:09.933Z,102332.11
2019-03-27T10:16:39.547Z,102336.11
2019-03-27T10:19:09.207Z,102347.05
2019-03-27T10:21:38.827Z,102347.00
2019-03-27T10:24:08.472Z,102336.92
2019-03-27T10:26:38.213Z,102339.11
2019-03-27T10:29:08.394Z,102353.92
2019-03-27T10:31:38.003Z,102332.74
2019-03-27T10:34:08.526Z,102345.67
2019-03-27T10:36:38.162Z,102335.52
2019-03-27T10:39:08.322Z,102334.24
2019-03-27T10:41:37.968Z,102341.87
2019-03-27T10:44:07.602Z,102326.78
2019-03-27T10:46:37.241Z,102334.23
2019-03-27T10:49:06.938Z,102350.27
2019-03-27T10:51:36.630Z,102336.72
2019-03-27T10:54:06.260Z,102335.15
2019-03-27T10:56:35.928Z,102341.55
2019-03-27T10:59:05.713Z,102339.02
2019-03-27T11:01:35.496Z,102322.84
2019-03-27T11:04:05.645Z,102319.39
2019-03-27T11:06:35.263Z,102327.55
2019-03-27T11:09:07.999Z,102330.94
2019-03-27T11:11:37.736Z,102332.52
2019-03-27T11:14:07.832Z,102322.23
2019-03-27T11:16:38.215Z,102324.83
2019-03-27T11:19:07.883Z,102327.98
2019-03-27T11:21:37.677Z,102342.08
2019-03-27T11:24:07.731Z,102331.11
2019-03-27T11:26:37.543Z,102327.88
2019-03-27T11:29:07.164Z,102309.13
2019-03-27T11:31:37.500Z,102324.16
2019-03-27T11:34:07.175Z,102324.30
2019-03-27T11:36:37.534Z,102325.30
2019-03-27T11:39:11.440Z,102326.62
2019-03-27T11:41:41.242Z,102329.45
2019-03-27T11:44:12.742Z,102326.88
2019-03-27T11:46:42.495Z,102323.52
2019-03-27T11:49:12.252Z,102324.03
2019-03-27T11:51:42.019Z,102321.81
2019-03-27T11:54:11.709Z,102331.34
2019-03-27T11:56:41.509Z,102324.08
2019-03-27T11:59:12.700Z,102328.52
2019-03-27T12:01:43.945Z,102314.41
2019-03-27T12:04:13.780Z,102321.94
2019-03-27T12:06:43.603Z,102320.47
2019-03-27T12:09:14.457Z,102347.91
2019-03-27T12:11:44.167Z,102321.21
2019-03-27T12:14:13.769Z,102324.94
2019-03-27T12:16:43.508Z,102304.80
2019-03-27T12:19:13.173Z,102316.36
2019-03-27T12:21:43.144Z,102314.55
2019-03-27T12:24:14.820Z,102310.05
2019-03-27T12:26:44.583Z,102313.06
2019-03-27T12:29:14.251Z,102328.87
2019-03-27T12:31:46.285Z,102320.39
2019-03-27T12:34:16.010Z,102325.14
2019-03-27T12:36:45.621Z,102326.01
2019-03-27T12:39:15.239Z,102317.05
2019-03-27T12:41:44.925Z,102330.56
2019-03-27T12:44:14.813Z,102313.33
2019-03-27T12:46:45.035Z,102319.92
2019-03-27T12:49:14.705Z,102319.36
2019-03-27T12:51:44.411Z,102327.16
2019-03-27T12:54:14.529Z,102322.47
2019-03-27T12:56:44.198Z,102319.18
2019-03-27T12:59:13.829Z,102332.92
2019-03-27T13:01:46.035Z,102339.92
2019-03-27T13:04:15.774Z,102322.00
2019-03-27T13:06:45.526Z,102316.70
2019-03-27T13:09:15.346Z,102321.95
2019-03-27T13:11:45.170Z,102314.17
2019-03-27T13:14:15.640Z,102329.86
2019-03-27T13:16:46.384Z,102306.41
2019-03-27T13:19:16.252Z,102307.80
2019-03-27T13:21:46.648Z,102308.84
2019-03-27T13:24:16.274Z,102308.16
2019-03-27T13:26:45.925Z,102304.64
2019-03-27T13:29:16.031Z,102309.06
2019-03-27T13:31:47.525Z,102302.47
2019-03-27T13:34:17.320Z,102302.59
2019-03-27T13:36:48.527Z,102294.95
2019-03-27T13:39:18.156Z,102297.94
2019-03-27T13:41:47.922Z,102290.29
2019-03-27T13:44:17.679Z,102291.50
2019-03-27T13:46:47.682Z,102290.91
2019-03-27T13:49:17.518Z,102279.41
2019-03-27T13:51:47.131Z,102280.59
2019-03-27T13:54:16.757Z,102279.33
2019-03-27T13:56:46.516Z,102278.05
2019-03-27T13:59:17.718Z,102273.86
2019-03-27T14:01:47.345Z,102273.95
2019-03-27T14:04:17.144Z,102283.05
2019-03-27T14:06:46.760Z,102274.05
2019-03-27T14:09:17.143Z,102280.85
2019-03-27T14:11:47.182Z,102262.56
2019-03-27T14:14:17.059Z,102295.72
2019-03-27T14:16:50.149Z,102273.96
2019-03-27T14:19:19.835Z,102266.70
2019-03-27T14:21:55.171Z,102285.57
2019-03-27T14:24:26.924Z,102278.78
2019-03-27T14:26:56.575Z,102271.13
2019-03-27T14:29:26.213Z,102273.96
2019-03-27T14:31:55.935Z,102275.30
2019-03-27T14:34:26.885Z,102287.21
2019-03-27T14:36:56.565Z,102271.17
2019-03-27T14:39:26.428Z,102284.72
2019-03-27T14:41:56.039Z,102262.42
2019-03-27T14:44:25.936Z,102267.19
2019-03-27T14:46:57.329Z,102273.59
2019-03-27T14:49:27.016Z,102269.00
2019-03-27T14:52:07.703Z,102275.45
2019-03-27T14:54:28.896Z,102263.72
2019-03-27T14:56:58.516Z,102267.48
2019-03-27T14:59:28.194Z,102259.02
2019-03-27T15:01:57.904Z,102260.30
2019-03-27T15:04:27.986Z,102259.12
2019-03-27T15:06:57.631Z,102257.48
2019-03-27T15:09:27.374Z,102246.98
2019-03-27T15:11:57.055Z,102261.08
2019-03-27T15:14:26.929Z,102256.87
2019-03-27T15:16:56.618Z,102254.75
2019-03-27T15:19:26.271Z,102247.94
2019-03-27T15:21:55.903Z,102250.84
2019-03-27T15:24:26.565Z,102244.55
2019-03-27T15:26:56.961Z,102240.70
2019-03-27T15:29:26.652Z,102258.02
2019-03-27T15:31:57.400Z,102269.48
2019-03-27T15:34:27.555Z,102236.11
2019-03-27T15:36:58.300Z,102238.31
2019-03-27T15:39:28.018Z,102238.75
2019-03-27T15:41:58.608Z,102245.98
2019-03-27T15:44:28.335Z,102242.18
2019-03-27T15:46:58.170Z,102248.19
2019-03-27T15:49:28.080Z,102253.31
2019-03-27T15:51:57.772Z,102244.03
2019-03-27T15:54:27.449Z,102241.53
2019-03-27T15:56:57.177Z,102256.28
2019-03-27T15:59:26.880Z,102243.97
2019-03-27T16:01:58.053Z,102246.87
2019-03-27T16:04:27.957Z,102241.81
2019-03-27T16:06:57.863Z,102245.70
2019-03-27T16:09:27.719Z,102254.11
2019-03-27T16:11:57.766Z,102248.99
2019-03-27T16:14:27.490Z,102251.14
2019-03-27T16:17:12.332Z,102260.50
2019-03-27T16:19:28.581Z,102252.47
2019-03-27T16:21:58.203Z,102250.77
2019-03-27T16:24:27.971Z,102244.48
2019-03-27T16:27:04.227Z,102255.48
2019-03-27T16:29:29.086Z,102253.42
2019-03-27T16:32:00.050Z,102261.16
2019-03-27T16:34:29.679Z,102265.02
2019-03-27T16:36:59.304Z,102259.09
2019-03-27T16:39:29.897Z,102262.88
2019-03-27T16:41:59.525Z,102259.09
2019-03-27T16:44:29.435Z,102257.83
2019-03-27T16:46:59.135Z,102262.88
2019-03-27T16:49:29.033Z,102271.36
2019-03-27T16:52:00.164Z,102263.75
2019-03-27T16:54:29.876Z,102276.89
2019-03-27T16:56:59.775Z,102268.02
2019-03-27T16:59:29.408Z,102273.15
2019-03-27T17:01:59.257Z,102276.09
2019-03-27T17:04:28.863Z,102272.34
2019-03-27T17:06:58.545Z,102277.80
2019-03-27T17:09:28.320Z,102282.02
2019-03-27T17:11:58.108Z,102277.83
2019-03-27T17:14:27.732Z,102276.56
2019-03-27T17:16:57.419Z,102285.81
2019-03-27T17:19:27.057Z,102286.66
2019-03-27T17:21:56.675Z,102293.79
2019-03-27T17:24:26.486Z,102292.11
2019-03-27T17:26:56.104Z,102288.77
2019-03-27T17:29:25.727Z,102289.61
2019-03-27T17:31:55.409Z,102295.95
2019-03-27T17:34:25.055Z,102296.41
2019-03-27T17:36:54.685Z,102291.77
2019-03-27T17:39:24.457Z,102296.84
2019-03-27T17:41:54.161Z,102295.98
2019-03-27T17:44:25.112Z,102298.52
2019-03-27T17:46:54.820Z,102301.02
2019-03-27T17:49:24.519Z,102297.22
2019-03-27T17:51:54.180Z,102298.09
2019-03-27T17:54:23.901Z,102299.36
2019-03-27T17:56:53.535Z,102309.50
2019-03-27T17:59:23.517Z,102314.57
2019-03-27T18:01:53.186Z,102304.94
2019-03-27T18:04:22.965Z,102307.86
2019-03-27T18:06:52.738Z,102309.58
2019-03-27T18:09:22.528Z,102311.31
2019-03-27T18:11:52.146Z,102317.65
2019-03-27T18:14:22.207Z,102315.11
2019-03-27T18:16:51.904Z,102318.48
2019-03-27T18:19:21.635Z,102314.70
2019-03-27T18:21:51.276Z,102316.38
2019-03-27T18:24:21.046Z,102326.55
2019-03-27T18:26:50.943Z,102318.19
2019-03-27T18:29:20.605Z,102312.74
2019-03-27T18:31:50.259Z,102317.00
2019-03-27T18:34:19.948Z,102313.66
2019-03-27T18:36:49.686Z,102316.23
2019-03-27T18:39:19.372Z,102312.96
2019-03-27T18:41:49.905Z,102308.32
2019-03-27T18:44:20.645Z,102309.59
2019-03-27T18:46:50.436Z,102315.92
2019-03-27T18:49:20.067Z,102318.03
2019-03-27T18:51:49.733Z,102304.14
2019-03-27T18:54:19.442Z,102307.05
2019-03-27T18:56:49.314Z,102300.30
2019-03-27T18:59:19.116Z,102319.33
2019-03-27T19:01:48.838Z,102317.67
2019-03-27T19:04:18.568Z,102321.05
2019-03-27T19:06:48.297Z,102320.14
2019-03-27T19:09:18.085Z,102322.66
2019-03-27T19:11:48.569Z,102317.99
2019-03-27T19:14:18.525Z,102331.50
2019-03-27T19:16:48.427Z,102323.05
2019-03-27T19:19:18.848Z,102316.72
2019-03-27T19:21:48.503Z,102322.59
2019-03-27T19:24:18.445Z,102323.79
2019-03-27T19:26:48.092Z,102317.03
2019-03-27T19:29:17.817Z,102326.74
2019-03-27T19:31:47.490Z,102316.61
2019-03-27T19:34:17.169Z,102319.99
2019-03-27T19:36:46.915Z,102319.61
2019-03-27T19:39:16.628Z,102318.37
2019-03-27T19:41:46.579Z,102319.64
2019-03-27T19:44:16.218Z,102310.81
2019-03-27T19:46:45.968Z,102320.48
2019-03-27T19:49:15.894Z,102314.58
2019-03-27T19:51:45.624Z,102316.12
2019-03-27T19:54:26.602Z,102322.75
2019-03-27T19:56:47.725Z,102324.48
2019-03-27T19:59:17.402Z,102321.56
2019-03-27T20:01:47.098Z,102321.56
2019-03-27T20:04:16.744Z,102325.40
2019-03-27T20:06:46.377Z,102334.66
2019-03-27T20:09:16.050Z,102336.38
2019-03-27T20:11:45.851Z,102333.00
2019-03-27T20:14:15.680Z,102333.00
2019-03-27T20:16:45.451Z,102333.00
2019-03-27T20:19:15.079Z,102340.98
2019-03-27T20:21:44.538Z,102341.83
2019-03-27T20:24:14.231Z,102344.75
2019-03-27T20:26:43.865Z,102341.37
2019-03-27T20:29:13.768Z,102350.23
2019-03-27T20:31:43.475Z,102346.86
2019-03-27T20:34:13.496Z,102351.50
2019-03-27T20:36:43.120Z,102353.11
2019-03-27T20:39:13.773Z,102350.88
2019-03-27T20:41:43.401Z,102358.45
2019-03-27T20:44:13.152Z,102361.41
2019-03-27T20:46:42.917Z,102364.39
2019-03-27T20:49:12.606Z,102372.84
2019-03-27T20:51:42.232Z,102370.34
2019-03-27T20:54:12.075Z,102371.66
2019-03-27T20:56:41.999Z,102378.87
2019-03-27T20:59:11.626Z,102369.19
2019-03-27T21:01:41.773Z,102372.15
2019-03-27T21:04:11.415Z,102375.48
2019-03-27T21:06:41.309Z,102378.45
2019-03-27T21:09:13.066Z,102371.76
2019-03-27T21:11:42.772Z,102379.39
2019-03-27T21:14:12.882Z,102375.66
2019-03-27T21:16:42.560Z,102384.56
2019-03-27T21:19:12.188Z,102371.48
2019-03-27T21:21:42.245Z,102381.22
2019-03-27T21:24:11.963Z,102385.41
2019-03-27T21:26:41.573Z,102387.94
2019-03-27T21:29:11.236Z,102376.97
2019-03-27T21:31:40.923Z,102380.77
2019-03-27T21:34:10.613Z,102376.55
2019-03-27T21:36:40.697Z,102376.16
2019-03-27T21:39:10.367Z,102376.19
2019-03-27T21:41:41.023Z,102374.95
2019-03-27T21:44:10.927Z,102374.11
2019-03-27T21:46:40.770Z,102383.37
2019-03-27T21:49:10.401Z,102384.59
2019-03-27T21:51:42.556Z,102375.31
2019-03-27T21:54:12.589Z,102380.34
2019-03-27T21:56:42.601Z,102380.28
2019-03-27T21:59:12.235Z,102383.69
2019-03-27T22:01:41.958Z,102388.36
2019-03-27T22:04:11.608Z,102386.73
2019-03-27T22:06:42.251Z,102383.40
2019-03-27T22:09:12.051Z,102383.86
2019-03-27T22:11:41.951Z,102381.74
2019-03-27T22:14:11.765Z,102384.27
2019-03-27T22:16:41.434Z,102384.24
2019-03-27T22:19:11.067Z,102392.72
2019-03-27T22:21:40.750Z,102391.42
2019-03-27T22:24:10.718Z,102393.11
2019-03-27T22:26:40.409Z,102393.88
2019-03-27T22:29:10.041Z,102394.31
2019-03-27T22:31:39.751Z,102398.17
2019-03-27T22:34:09.709Z,102403.23
2019-03-27T22:36:39.355Z,102403.69
2019-03-27T22:39:09.531Z,102403.27
2019-03-27T22:41:39.224Z,102408.75
2019-03-27T22:44:08.870Z,102404.14
2019-03-27T22:46:38.738Z,102410.05
2019-03-27T22:49:08.372Z,102405.04
2019-03-27T22:51:38.035Z,102409.31
2019-03-27T22:54:07.800Z,102409.31
2019-03-27T22:56:37.427Z,102406.39
2019-03-27T22:59:07.238Z,102410.63
2019-03-27T23:01:45.129Z,102408.12
2019-03-27T23:04:14.755Z,102407.70
2019-03-27T23:06:45.100Z,102405.99
2019-03-27T23:09:14.961Z,102409.73
2019-03-27T23:11:44.752Z,102415.16
2019-03-27T23:14:14.499Z,102421.86
2019-03-27T23:16:44.191Z,102430.69
2019-03-27T23:19:14.373Z,102429.36
2019-03-27T23:21:44.115Z,102425.54
2019-03-27T23:24:13.816Z,102424.23
2019-03-27T23:26:43.631Z,102418.75
2019-03-27T23:29:13.239Z,102419.20
2019-03-27T23:31:42.939Z,102416.67
2019-03-27T23:34:12.558Z,102420.89
2019-03-27T23:36:42.934Z,102418.00
2019-03-27T23:39:12.632Z,102424.78
2019-03-27T23:41:42.312Z,102419.30
2019-03-27T23:44:12.029Z,102421.02
2019-03-27T23:46:41.770Z,102422.67
2019-03-27T23:49:11.412Z,102417.97
2019-03-27T23:51:41.054Z,102422.97
2019-03-27T23:54:11.786Z,102429.34
2019-03-27T23:56:41.434Z,102439.46
2019-03-27T23:59:11.194Z,102439.07
